Valdosta, GA

1:41 AM EDT on April 24, 2017 (GMT -0400)
Audio Video and Security Inc. | | Change Station

Elev 220 ft 30.81 °N, 83.32 °W | Updated 12 seconds ago

Overcast
Overcast
60.0 °F
Feels Like 60.0 °F
N
4.2
Wind Variable Wind from West

Today
High -- | Low -- °F
--% Chance of Precip.
Yesterday
High -- | Low -- °F
Precip. -- in
Pressure 29.80 in
Visibility 10.0 miles
Clouds Overcast 2100 ft
Dew Point 60 °F
Humidity 99%
Rainfall 0.00 in
Snow Depth Not available.
6:55 AM 8:07 PM
Waning Crescent, 7% visible
METAR KVLD 240453Z VRB04KT 10SM OVC021 18/14 A2978 RMK AO2 RAB00E25 SLP090 P0000 T01780144 403060150
Pressure 29.80 in
Visibility 10.0 miles
Clouds Overcast 2100 ft
Dew Point 60 °F
Humidity 99%
Rainfall 0.00 in
Snow Depth Not available.
6:55 AM 8:07 PM
Waning Crescent, 7% visible
METAR KVLD 240453Z VRB04KT 10SM OVC021 18/14 A2978 RMK AO2 RAB00E25 SLP090 P0000 T01780144 403060150

Get Severe Weather Alerts

Thanks for signing up!

Be on the lookout for a verification email in your inbox.

You'll start receiving the daily forecast at 8 AM.

×

10-Day Weather Forecast

Almanac

Astronomy

Apr. 24, 2017 Rise Set
Actual Time
Civil Twilight
Nautical Twilight
Astronomical Twilight
Moon
Length of Visible Light
Length of Day
Tomorrow will be .
, % of the Moon is Illuminated

Today's Extremes

State Highs State Lows

Community

WunderPhotos

WunderBlog® & News

Nearby

Air Quality

  Air Quality AQ Index Pollutant
Not available.

Snow Depth

Station Depth Elevation

Earthquake Activity

City Distance Mag. Time & Date
Minimum magnitude displayed is 2.5.

Coastal Water Temperatures

Place Temperature

Stations

Nearby Weather Stations

Station Location Temp. Windchill Dew Point Humidity Wind Precip. Elev Updated Type
                   

Watches & Warnings

There are currently no watches in effect.